createdAt,value
2022-08-31T00:00:17.471Z,68.25
2022-08-31T00:03:03.143Z,68.38
2022-08-31T00:05:30.316Z,68.57
2022-08-31T00:07:57.328Z,68.80
2022-08-31T00:10:31.930Z,69.12
2022-08-31T00:13:01.222Z,68.95
2022-08-31T00:15:30.435Z,69.15
2022-08-31T00:17:58.776Z,69.47
2022-08-31T00:20:33.620Z,69.48
2022-08-31T00:23:03.497Z,70.05
2022-08-31T00:25:31.200Z,69.29
2022-08-31T00:27:58.269Z,70.13
2022-08-31T00:30:25.453Z,69.81
2022-08-31T00:32:52.824Z,69.92
2022-08-31T00:35:20.065Z,69.98
2022-08-31T00:37:47.254Z,70.51
2022-08-31T00:40:14.561Z,70.24
2022-08-31T00:42:41.671Z,70.34
2022-08-31T00:45:10.259Z,70.34
2022-08-31T00:47:37.358Z,70.43
2022-08-31T00:50:09.214Z,70.80
2022-08-31T00:52:41.073Z,70.83
2022-08-31T00:55:14.329Z,70.71
2022-08-31T00:57:44.889Z,70.79
2022-08-31T01:00:17.581Z,71.84
2022-08-31T01:02:45.695Z,71.42
2022-08-31T01:05:14.516Z,71.59
2022-08-31T01:07:42.379Z,71.79
2022-08-31T01:10:10.610Z,72.14
2022-08-31T01:12:38.314Z,73.05
2022-08-31T01:15:08.794Z,73.06
2022-08-31T01:17:36.919Z,72.88
2022-08-31T01:20:22.689Z,73.42
2022-08-31T01:22:55.438Z,73.44
2022-08-31T01:25:22.692Z,73.56
2022-08-31T01:27:49.816Z,73.52
2022-08-31T01:30:26.117Z,74.44
2022-08-31T01:32:53.501Z,74.78
2022-08-31T01:35:20.658Z,74.40
2022-08-31T01:37:48.025Z,75.73
2022-08-31T01:40:16.432Z,75.35
2022-08-31T01:42:43.848Z,76.09
2022-08-31T01:45:11.885Z,76.06
2022-08-31T01:47:40.467Z,76.93
2022-08-31T01:50:08.661Z,76.55
2022-08-31T01:52:37.807Z,76.48
2022-08-31T01:55:07.815Z,77.75
2022-08-31T01:57:35.104Z,77.59
2022-08-31T02:00:25.928Z,77.41
2022-08-31T02:02:52.960Z,77.80
2022-08-31T02:05:19.998Z,77.67
2022-08-31T02:07:47.305Z,77.62
2022-08-31T02:10:14.425Z,78.56
2022-08-31T02:12:41.524Z,78.28
2022-08-31T02:15:10.257Z,78.50
2022-08-31T02:17:37.489Z,78.28
2022-08-31T02:20:08.718Z,79.53
2022-08-31T02:22:36.127Z,80.65
2022-08-31T02:25:03.706Z,80.43
2022-08-31T02:27:30.997Z,80.02
2022-08-31T02:29:58.058Z,79.70
2022-08-31T02:32:25.274Z,80.18
2022-08-31T02:34:52.421Z,79.70
2022-08-31T02:37:20.214Z,80.07
2022-08-31T02:39:48.799Z,81.16
2022-08-31T02:42:18.575Z,80.86
2022-08-31T02:44:46.511Z,80.76
2022-08-31T02:47:13.531Z,80.55
2022-08-31T02:49:45.636Z,82.32
2022-08-31T02:52:13.422Z,81.41
2022-08-31T02:54:41.128Z,81.57
2022-08-31T02:57:08.375Z,82.00
2022-08-31T02:59:35.377Z,82.19
2022-08-31T03:02:02.549Z,81.87
2022-08-31T03:04:30.676Z,81.42
2022-08-31T03:06:57.733Z,80.95
2022-08-31T03:09:24.879Z,80.80
2022-08-31T03:11:52.029Z,81.11
2022-08-31T03:14:19.035Z,80.79
2022-08-31T03:16:46.244Z,81.00
2022-08-31T03:19:20.756Z,80.86
2022-08-31T03:21:47.964Z,81.37
2022-08-31T03:24:23.005Z,80.95
2022-08-31T03:26:55.203Z,80.98
2022-08-31T03:29:22.494Z,80.88
2022-08-31T03:32:08.464Z,80.46
2022-08-31T03:34:37.353Z,80.18
2022-08-31T03:37:04.474Z,80.08
2022-08-31T03:39:31.837Z,80.55
2022-08-31T03:41:58.948Z,80.31
2022-08-31T03:44:25.916Z,80.43
2022-08-31T03:46:56.671Z,80.45
2022-08-31T03:49:25.214Z,80.47
2022-08-31T03:52:15.682Z,80.37
2022-08-31T03:54:46.653Z,80.50
2022-08-31T03:57:14.113Z,79.91
2022-08-31T03:59:41.131Z,80.09
2022-08-31T04:02:20.983Z,80.49
2022-08-31T04:05:18.044Z,80.53
2022-08-31T04:08:03.952Z,79.72
2022-08-31T04:11:11.669Z,79.35
2022-08-31T04:13:59.151Z,78.75
2022-08-31T04:16:36.673Z,78.29
2022-08-31T04:19:41.433Z,78.03
2022-08-31T04:22:17.828Z,78.03
2022-08-31T04:25:05.292Z,78.04
2022-08-31T04:27:33.869Z,77.92
2022-08-31T04:30:02.183Z,77.32
2022-08-31T04:32:31.821Z,77.04
2022-08-31T04:34:58.839Z,76.78
2022-08-31T04:37:25.957Z,75.56
2022-08-31T04:39:53.350Z,75.04
2022-08-31T04:42:20.618Z,74.81
2022-08-31T04:44:47.621Z,74.07
2022-08-31T04:47:14.655Z,73.37
2022-08-31T04:49:44.121Z,72.83
2022-08-31T04:52:11.161Z,71.98
2022-08-31T04:54:38.255Z,71.89
2022-08-31T04:57:05.555Z,71.12
2022-08-31T04:59:33.329Z,70.46
2022-08-31T05:02:15.819Z,69.97
2022-08-31T05:04:52.373Z,69.29
2022-08-31T05:07:19.822Z,69.50
2022-08-31T05:09:47.073Z,69.30
2022-08-31T05:12:14.121Z,68.82
2022-08-31T05:14:42.162Z,69.08
2022-08-31T05:17:19.611Z,68.98
2022-08-31T05:19:46.778Z,68.32
2022-08-31T05:22:15.644Z,67.37
2022-08-31T05:24:44.458Z,67.46
2022-08-31T05:27:12.990Z,67.45
2022-08-31T05:29:41.015Z,67.88
2022-08-31T05:32:30.884Z,69.37
2022-08-31T05:35:00.466Z,69.32
2022-08-31T05:37:27.568Z,70.16
2022-08-31T05:39:55.187Z,69.32
2022-08-31T05:42:22.318Z,68.87
2022-08-31T05:44:49.485Z,69.60
2022-08-31T05:47:17.057Z,69.98
2022-08-31T05:49:44.616Z,69.69
2022-08-31T05:52:15.660Z,69.36
2022-08-31T05:54:43.815Z,69.47
2022-08-31T05:57:10.812Z,69.44
2022-08-31T05:59:39.895Z,68.96
2022-08-31T06:02:10.705Z,69.06
2022-08-31T06:04:38.690Z,69.13
2022-08-31T06:07:05.743Z,69.14
2022-08-31T06:09:48.300Z,69.08
2022-08-31T06:12:20.646Z,68.81
2022-08-31T06:14:51.273Z,68.26
2022-08-31T06:17:20.522Z,66.34
2022-08-31T06:19:47.853Z,63.23
2022-08-31T06:22:14.944Z,59.67
2022-08-31T06:24:43.191Z,55.62
2022-08-31T06:27:10.393Z,53.25
2022-08-31T06:29:37.931Z,49.02
2022-08-31T06:32:08.904Z,51.28
2022-08-31T06:34:40.733Z,52.47
2022-08-31T06:37:10.935Z,52.93
2022-08-31T06:39:46.710Z,54.53
2022-08-31T06:42:32.373Z,55.27
2022-08-31T06:45:03.028Z,55.60
2022-08-31T06:47:40.802Z,55.83
2022-08-31T06:50:09.166Z,57.37
2022-08-31T06:52:38.918Z,58.16
2022-08-31T06:55:32.152Z,58.59
2022-08-31T06:58:17.813Z,58.60
2022-08-31T07:00:58.734Z,58.06
2022-08-31T07:03:45.921Z,55.63
2022-08-31T07:06:17.569Z,53.87
2022-08-31T07:08:49.332Z,51.82
2022-08-31T07:11:21.021Z,52.10
2022-08-31T07:13:49.121Z,52.27
2022-08-31T07:16:18.857Z,51.32
2022-08-31T07:18:47.324Z,52.66
2022-08-31T07:21:19.920Z,53.25
2022-08-31T07:23:49.422Z,53.33
2022-08-31T07:26:25.775Z,53.48
2022-08-31T07:28:53.724Z,54.86
2022-08-31T07:31:23.648Z,56.79
2022-08-31T07:33:52.566Z,56.21
2022-08-31T07:36:19.945Z,56.55
2022-08-31T07:39:35.120Z,56.93
2022-08-31T07:42:11.529Z,58.15
2022-08-31T07:44:41.585Z,59.30
2022-08-31T07:47:12.534Z,58.88
2022-08-31T07:49:47.918Z,60.06
2022-08-31T07:52:34.162Z,59.84
2022-08-31T07:55:09.542Z,58.68
2022-08-31T07:57:53.563Z,58.93
2022-08-31T08:00:27.771Z,58.13
2022-08-31T08:02:55.334Z,57.99
2022-08-31T08:05:29.369Z,57.04
2022-08-31T08:08:28.971Z,56.37
2022-08-31T08:11:18.765Z,55.98
2022-08-31T08:13:54.883Z,56.81
2022-08-31T08:16:36.398Z,57.16
2022-08-31T08:19:18.125Z,56.44
2022-08-31T08:21:46.945Z,56.21
2022-08-31T08:24:16.642Z,56.03
2022-08-31T08:27:02.508Z,56.38
2022-08-31T08:29:56.414Z,55.66
2022-08-31T08:32:27.827Z,55.77
2022-08-31T08:34:55.473Z,56.16
2022-08-31T08:37:41.104Z,56.47
2022-08-31T08:40:26.473Z,57.34
2022-08-31T08:42:54.442Z,57.12
2022-08-31T08:45:22.476Z,56.59
2022-08-31T08:47:51.093Z,55.94
2022-08-31T08:50:19.218Z,55.80
2022-08-31T08:52:47.757Z,54.65
2022-08-31T08:55:19.369Z,53.76
2022-08-31T08:57:49.844Z,50.68
2022-08-31T09:00:26.131Z,47.82
2022-08-31T09:03:04.036Z,46.61
2022-08-31T09:05:59.064Z,47.48
2022-08-31T09:08:41.572Z,47.63
2022-08-31T09:11:28.919Z,48.76
2022-08-31T09:13:56.197Z,49.03
2022-08-31T09:16:48.594Z,51.12
2022-08-31T09:19:18.715Z,51.95
2022-08-31T09:21:50.252Z,52.81
2022-08-31T09:24:22.067Z,51.86
2022-08-31T09:27:18.481Z,51.95
2022-08-31T09:29:53.509Z,52.14
2022-08-31T09:32:32.276Z,52.63
2022-08-31T09:35:06.212Z,52.26
2022-08-31T09:37:47.922Z,51.86
2022-08-31T09:40:32.173Z,51.98
2022-08-31T09:43:04.774Z,52.10
2022-08-31T09:45:41.277Z,51.95
2022-08-31T09:48:09.518Z,51.93
2022-08-31T09:50:47.051Z,49.11
2022-08-31T09:53:35.184Z,44.38
2022-08-31T09:56:14.323Z,43.56
2022-08-31T09:58:51.411Z,45.37
2022-08-31T10:01:24.441Z,45.80
2022-08-31T10:04:26.197Z,45.93
2022-08-31T10:06:56.259Z,39.59
2022-08-31T10:09:30.373Z,38.12
2022-08-31T10:12:04.346Z,41.14
2022-08-31T10:15:08.549Z,42.55
2022-08-31T10:17:45.345Z,43.94
2022-08-31T10:20:21.285Z,45.99
2022-08-31T10:22:58.356Z,47.92
2022-08-31T10:25:31.356Z,48.27
2022-08-31T10:28:08.533Z,50.08
2022-08-31T10:31:02.407Z,50.82
2022-08-31T10:33:59.154Z,50.81
2022-08-31T10:36:33.816Z,50.63
2022-08-31T10:39:01.292Z,53.01
2022-08-31T10:41:38.653Z,58.20
2022-08-31T10:44:24.223Z,59.40
2022-08-31T10:46:54.589Z,59.22
2022-08-31T10:49:22.309Z,59.91
2022-08-31T10:52:03.303Z,60.69
2022-08-31T10:54:49.120Z,60.30
2022-08-31T10:57:51.275Z,62.77
2022-08-31T11:00:47.629Z,63.12
2022-08-31T11:03:51.868Z,62.92
2022-08-31T11:06:18.853Z,60.21
2022-08-31T11:08:54.237Z,58.99
2022-08-31T11:11:31.878Z,57.70
2022-08-31T11:14:17.795Z,57.89
2022-08-31T11:17:13.341Z,56.97
2022-08-31T11:20:02.572Z,56.52
2022-08-31T11:22:37.691Z,56.71
2022-08-31T11:25:34.135Z,55.63
2022-08-31T11:28:10.201Z,56.93
2022-08-31T11:30:42.248Z,55.83
2022-08-31T11:33:19.825Z,55.53
2022-08-31T11:35:50.124Z,50.41
2022-08-31T11:39:03.656Z,49.62
2022-08-31T11:41:46.649Z,49.69
2022-08-31T11:44:33.187Z,51.33
2022-08-31T11:47:08.716Z,53.05
2022-08-31T11:49:46.070Z,54.18
2022-08-31T11:52:29.848Z,54.45
2022-08-31T11:55:01.736Z,55.22
2022-08-31T11:57:37.734Z,55.00
2022-08-31T12:00:19.566Z,54.52
2022-08-31T12:03:04.579Z,54.83
2022-08-31T12:05:51.077Z,53.87
2022-08-31T12:08:18.242Z,52.65
2022-08-31T12:11:05.528Z,52.24
2022-08-31T12:13:40.124Z,50.87
2022-08-31T12:16:28.305Z,50.15
2022-08-31T12:19:09.059Z,48.86
2022-08-31T12:21:57.627Z,48.98
2022-08-31T12:24:30.389Z,49.16
2022-08-31T12:27:22.118Z,50.14
2022-08-31T12:29:50.221Z,50.87
2022-08-31T12:32:23.290Z,51.12
2022-08-31T12:34:55.919Z,51.38
2022-08-31T12:37:34.987Z,51.42
2022-08-31T12:40:22.701Z,50.57
2022-08-31T12:42:58.009Z,50.52
2022-08-31T12:45:40.102Z,48.70
2022-08-31T12:48:20.332Z,47.53
2022-08-31T12:51:05.592Z,47.75
2022-08-31T12:53:53.966Z,47.74
2022-08-31T12:56:51.860Z,47.96
2022-08-31T12:59:45.743Z,46.60
2022-08-31T13:02:15.994Z,46.68
2022-08-31T13:04:45.464Z,46.29
2022-08-31T13:07:29.086Z,46.34
2022-08-31T13:10:06.818Z,46.65
2022-08-31T13:12:34.147Z,46.94
2022-08-31T13:15:01.225Z,46.96
2022-08-31T13:17:36.783Z,47.24
2022-08-31T13:20:07.674Z,47.23
2022-08-31T13:22:41.859Z,46.66
2022-08-31T13:25:33.293Z,46.49
2022-08-31T13:28:01.203Z,46.14
2022-08-31T13:30:28.249Z,46.49
2022-08-31T13:32:55.716Z,46.29
2022-08-31T13:35:31.934Z,45.82
2022-08-31T13:38:08.109Z,45.58
2022-08-31T13:40:39.683Z,45.37
2022-08-31T13:43:10.413Z,45.28
2022-08-31T13:45:50.583Z,45.35
2022-08-31T13:48:32.209Z,45.36
2022-08-31T13:51:14.913Z,45.96
2022-08-31T13:54:03.845Z,46.17
2022-08-31T13:56:49.000Z,46.25
2022-08-31T13:59:24.648Z,47.17
2022-08-31T14:02:05.928Z,47.06
2022-08-31T14:04:48.507Z,47.21
2022-08-31T14:07:21.831Z,47.75
2022-08-31T14:09:50.941Z,47.43
2022-08-31T14:12:46.665Z,47.57
2022-08-31T14:15:19.538Z,47.83
2022-08-31T14:21:20.982Z,49.65
2022-08-31T14:24:03.270Z,49.77
2022-08-31T14:26:42.611Z,49.53
2022-08-31T14:29:13.324Z,49.25
2022-08-31T14:31:52.483Z,49.08
2022-08-31T14:34:32.271Z,49.35
2022-08-31T14:37:02.557Z,49.52
2022-08-31T14:39:48.129Z,48.80
2022-08-31T14:42:29.130Z,49.29
2022-08-31T14:45:00.744Z,48.79
2022-08-31T14:47:30.561Z,49.02
2022-08-31T14:50:08.511Z,49.02
2022-08-31T14:52:38.568Z,49.17
2022-08-31T14:55:09.303Z,49.33
2022-08-31T14:57:38.243Z,49.63
2022-08-31T15:00:07.512Z,49.50
2022-08-31T15:02:35.479Z,49.68
2022-08-31T15:05:06.521Z,49.65
2022-08-31T15:07:36.452Z,49.57
2022-08-31T15:10:06.866Z,49.95
2022-08-31T15:12:35.532Z,50.38
2022-08-31T15:15:02.545Z,50.70
2022-08-31T15:17:34.325Z,50.69
2022-08-31T15:20:03.540Z,51.24
2022-08-31T15:22:33.275Z,51.68
2022-08-31T15:25:00.390Z,51.46
2022-08-31T15:27:29.155Z,51.90
2022-08-31T15:30:01.392Z,52.36
2022-08-31T15:32:31.724Z,52.60
2022-08-31T15:34:58.748Z,53.01
2022-08-31T15:37:32.148Z,53.17
2022-08-31T15:40:02.267Z,53.24
2022-08-31T15:42:37.556Z,53.38
2022-08-31T15:45:05.665Z,53.60
2022-08-31T15:47:54.815Z,53.96
2022-08-31T15:50:31.954Z,53.87
2022-08-31T15:53:08.985Z,53.95
2022-08-31T15:55:40.704Z,54.02
2022-08-31T15:58:09.551Z,54.55
2022-08-31T16:00:37.659Z,54.80
2022-08-31T16:03:06.427Z,54.82
2022-08-31T16:05:35.914Z,54.69
2022-08-31T16:08:03.397Z,55.22
2022-08-31T16:10:31.178Z,55.53
2022-08-31T16:12:58.209Z,55.32
2022-08-31T16:15:26.232Z,55.46
2022-08-31T16:17:57.709Z,54.97
2022-08-31T16:20:27.520Z,54.43
2022-08-31T16:22:55.329Z,53.49
2022-08-31T16:25:22.366Z,52.67
2022-08-31T16:27:49.999Z,52.33
2022-08-31T16:30:17.057Z,52.59
2022-08-31T16:32:46.432Z,52.12
2022-08-31T16:35:15.190Z,51.67
2022-08-31T16:37:42.205Z,51.74
2022-08-31T16:40:09.995Z,51.72
2022-08-31T16:42:37.300Z,52.04
2022-08-31T16:45:04.790Z,51.87
2022-08-31T16:47:31.878Z,52.23
2022-08-31T16:50:02.534Z,51.89
2022-08-31T16:52:30.916Z,52.29
2022-08-31T16:54:58.035Z,51.88
2022-08-31T16:57:28.400Z,52.06
2022-08-31T16:59:59.449Z,52.00
2022-08-31T17:02:27.753Z,52.43
2022-08-31T17:05:00.658Z,52.17
2022-08-31T17:07:29.126Z,52.52
2022-08-31T17:10:07.191Z,52.37
2022-08-31T17:12:34.906Z,52.96
2022-08-31T17:15:03.815Z,52.52
2022-08-31T17:17:32.990Z,52.21
2022-08-31T17:20:00.867Z,52.42
2022-08-31T17:22:33.264Z,52.14
2022-08-31T17:25:03.754Z,52.32
2022-08-31T17:27:33.470Z,52.29
2022-08-31T17:30:05.139Z,52.56
2022-08-31T17:32:32.953Z,52.13
2022-08-31T17:34:59.931Z,52.80
2022-08-31T17:37:36.586Z,52.83
2022-08-31T17:40:09.086Z,52.22
2022-08-31T17:42:37.468Z,52.15
2022-08-31T17:45:05.893Z,52.46
2022-08-31T17:47:33.380Z,52.36
2022-08-31T17:50:00.637Z,52.42
2022-08-31T17:52:28.197Z,52.52
2022-08-31T17:54:55.398Z,52.13
2022-08-31T17:57:25.335Z,52.12
2022-08-31T17:59:53.415Z,52.15
2022-08-31T18:02:32.366Z,51.85
2022-08-31T18:05:00.848Z,51.59
2022-08-31T18:07:28.733Z,51.83
2022-08-31T18:09:56.173Z,52.31
2022-08-31T18:12:25.678Z,52.11
2022-08-31T18:14:54.030Z,52.16
2022-08-31T18:17:25.679Z,52.59
2022-08-31T18:19:52.913Z,52.22
2022-08-31T18:22:19.992Z,51.99
2022-08-31T18:24:47.011Z,52.20
2022-08-31T18:27:17.880Z,52.72
2022-08-31T18:29:45.466Z,52.65
2022-08-31T18:32:12.691Z,52.91
2022-08-31T18:34:44.910Z,53.00
2022-08-31T18:37:13.138Z,52.76
2022-08-31T18:40:08.559Z,52.71
2022-08-31T18:42:56.848Z,52.86
2022-08-31T18:45:25.229Z,53.02
2022-08-31T18:48:23.342Z,53.03
2022-08-31T18:50:46.758Z,53.54
2022-08-31T18:53:27.426Z,53.92
2022-08-31T18:55:59.478Z,53.80
2022-08-31T18:58:26.538Z,53.94
2022-08-31T19:00:57.321Z,54.06
2022-08-31T19:03:25.871Z,54.50
2022-08-31T19:05:52.951Z,55.06
2022-08-31T19:08:20.059Z,54.84
2022-08-31T19:10:49.135Z,54.85
2022-08-31T19:13:16.363Z,54.95
2022-08-31T19:15:44.374Z,55.32
2022-08-31T19:18:11.572Z,55.53
2022-08-31T19:20:39.945Z,55.95
2022-08-31T19:23:08.125Z,56.62
2022-08-31T19:25:42.351Z,56.79
2022-08-31T19:28:10.066Z,56.59
2022-08-31T19:30:38.118Z,57.05
2022-08-31T19:33:11.506Z,57.20
2022-08-31T19:35:38.541Z,57.42
2022-08-31T19:38:05.948Z,57.55
2022-08-31T19:40:40.064Z,58.24
2022-08-31T19:45:54.500Z,58.11
2022-08-31T19:48:23.517Z,58.33
2022-08-31T19:50:52.307Z,59.20
2022-08-31T19:53:21.595Z,59.43
2022-08-31T19:55:51.078Z,60.20
2022-08-31T19:58:22.155Z,60.28
2022-08-31T20:00:50.035Z,60.43
2022-08-31T20:03:19.379Z,60.51
2022-08-31T20:05:47.655Z,60.25
2022-08-31T20:08:14.597Z,60.44
2022-08-31T20:10:44.115Z,60.91
2022-08-31T20:13:12.680Z,60.78
2022-08-31T20:15:45.120Z,61.19
2022-08-31T20:18:12.896Z,61.01
2022-08-31T20:20:45.955Z,61.51
2022-08-31T20:23:16.717Z,61.26
2022-08-31T20:25:49.760Z,61.82
2022-08-31T20:28:25.547Z,62.36
2022-08-31T20:30:59.183Z,62.34
2022-08-31T20:33:27.576Z,62.18
2022-08-31T20:35:54.677Z,61.66
2022-08-31T20:38:21.664Z,62.19
2022-08-31T20:40:52.753Z,62.19
2022-08-31T20:43:21.239Z,61.83
2022-08-31T20:45:48.830Z,61.90
2022-08-31T20:48:34.401Z,62.42
2022-08-31T20:51:16.324Z,62.82
2022-08-31T20:53:44.687Z,62.47
2022-08-31T20:56:16.375Z,62.55
2022-08-31T20:58:46.123Z,62.76
2022-08-31T21:01:14.255Z,62.80
2022-08-31T21:03:41.965Z,62.40
2022-08-31T21:06:11.773Z,62.65
2022-08-31T21:08:41.011Z,62.47
2022-08-31T21:11:16.792Z,63.36
2022-08-31T21:13:44.661Z,62.48
2022-08-31T21:16:11.936Z,62.42
2022-08-31T21:18:40.537Z,62.30
2022-08-31T21:21:10.811Z,62.21
2022-08-31T21:23:38.609Z,62.30
2022-08-31T21:26:09.520Z,62.65
2022-08-31T21:28:40.051Z,62.79
2022-08-31T21:31:16.456Z,62.84
2022-08-31T21:33:57.443Z,63.37
2022-08-31T21:36:26.739Z,63.55
2022-08-31T21:38:55.898Z,63.85
2022-08-31T21:41:26.815Z,64.27
2022-08-31T21:43:55.041Z,64.03
2022-08-31T21:46:25.370Z,64.40
2022-08-31T21:48:55.301Z,64.91
2022-08-31T21:51:24.076Z,64.77
2022-08-31T21:53:57.213Z,65.21
2022-08-31T21:56:26.703Z,65.76
2022-08-31T21:58:54.497Z,66.67
2022-08-31T22:01:24.069Z,65.63
2022-08-31T22:03:54.575Z,65.96
2022-08-31T22:06:31.199Z,66.74
2022-08-31T22:09:08.545Z,66.64
2022-08-31T22:11:41.883Z,67.98
2022-08-31T22:14:11.094Z,67.14
2022-08-31T22:16:39.563Z,68.02
2022-08-31T22:19:13.583Z,67.66
2022-08-31T22:21:51.281Z,68.64
2022-08-31T22:24:26.989Z,67.64
2022-08-31T22:26:57.093Z,67.93
2022-08-31T22:29:26.525Z,68.03
2022-08-31T22:31:56.528Z,68.77
2022-08-31T22:34:24.174Z,68.15
2022-08-31T22:36:52.428Z,68.82
2022-08-31T22:39:28.281Z,68.46
2022-08-31T22:41:56.842Z,68.76
2022-08-31T22:44:27.168Z,69.37
2022-08-31T22:46:56.591Z,69.25
2022-08-31T22:49:24.546Z,69.58
2022-08-31T22:51:51.732Z,69.92
2022-08-31T22:54:19.888Z,69.67
2022-08-31T22:56:47.747Z,70.96
2022-08-31T22:59:21.117Z,70.07
2022-08-31T23:01:52.386Z,70.99
2022-08-31T23:04:20.624Z,71.05
2022-08-31T23:06:49.854Z,70.74
2022-08-31T23:09:21.198Z,71.00
2022-08-31T23:11:51.681Z,71.15
2022-08-31T23:14:22.667Z,70.77
2022-08-31T23:16:55.239Z,71.57
2022-08-31T23:19:26.406Z,71.29
2022-08-31T23:21:56.749Z,71.51
2022-08-31T23:24:37.461Z,71.96
2022-08-31T23:27:07.469Z,71.97
2022-08-31T23:29:40.903Z,71.46
2022-08-31T23:32:12.178Z,71.96
2022-08-31T23:34:41.347Z,71.25
2022-08-31T23:37:09.901Z,71.66
2022-08-31T23:39:43.689Z,71.89
2022-08-31T23:42:13.935Z,72.44
2022-08-31T23:44:43.701Z,72.17
2022-08-31T23:47:13.844Z,71.59
2022-08-31T23:49:42.698Z,71.53
2022-08-31T23:52:12.138Z,71.63
2022-08-31T23:54:40.075Z,70.91
2022-08-31T23:57:08.586Z,70.25
